Terminal Aerodrome Forecast
Issued by NWS

Home | Current Version | Previous Version | Text Only | Print | Product List | Glossary On
Versions: 1 2 3 4 5 6 7 8 9 10 11 12 13
000
FTUS45 KREV 211127
TAFTVL
TAF
KTVL 211127Z 2112/2212 VRB04KT P6SM SCT070 OVC120
     FM220900 19006KT 4SM -SN OVC010
     FM221100 19008G17KT 1/2SM SN OVC005=

USA.gov is the U.S. government's official web portal to all federal, state and local government web resources and services.